createdAt,value
2023-02-23T00:02:20.960Z,101137.89
2023-02-23T00:04:49.366Z,101140.41
2023-02-23T00:07:21.141Z,101136.98
2023-02-23T00:09:51.187Z,101139.58
2023-02-23T00:12:22.367Z,101139.11
2023-02-23T00:14:50.726Z,101139.34
2023-02-23T00:17:20.308Z,101142.27
2023-02-23T00:19:57.739Z,101146.23
2023-02-23T00:22:31.967Z,101152.73
2023-02-23T00:25:03.446Z,101154.79
2023-02-23T00:27:34.547Z,101157.83
2023-02-23T00:30:05.148Z,101157.20
2023-02-23T00:32:40.431Z,101161.02
2023-02-23T00:35:18.936Z,101165.16
2023-02-23T00:37:54.374Z,101163.98
2023-02-23T00:40:27.461Z,101165.84
2023-02-23T00:42:59.936Z,101167.47
2023-02-23T00:45:30.983Z,101168.73
2023-02-23T00:48:02.575Z,101170.90
2023-02-23T00:50:45.125Z,101169.84
2023-02-23T00:53:20.036Z,101170.42
2023-02-23T00:56:08.656Z,101172.08
2023-02-23T00:58:56.864Z,101176.94
2023-02-23T01:01:29.127Z,101181.73
2023-02-23T01:04:12.767Z,101185.19
2023-02-23T01:06:55.700Z,101188.73
2023-02-23T01:09:31.695Z,101190.73
2023-02-23T01:12:02.013Z,101192.20
2023-02-23T01:14:31.547Z,101194.17
2023-02-23T01:17:00.682Z,101193.80
2023-02-23T01:20:02.057Z,101202.16
2023-02-23T01:22:31.789Z,101197.42
2023-02-23T01:25:00.241Z,101202.95
2023-02-23T01:27:29.478Z,101202.72
2023-02-23T01:29:57.665Z,101207.16
2023-02-23T01:32:27.078Z,101210.05
2023-02-23T01:34:56.115Z,101214.34
2023-02-23T01:37:24.552Z,101218.59
2023-02-23T01:39:53.407Z,101222.42
2023-02-23T01:42:43.261Z,101225.80
2023-02-23T01:45:24.053Z,101227.85
2023-02-23T01:47:55.117Z,101228.98
2023-02-23T01:50:25.460Z,101231.71
2023-02-23T01:52:53.775Z,101233.41
2023-02-23T01:55:26.084Z,101230.86
2023-02-23T01:57:55.940Z,101235.65
2023-02-23T02:00:26.170Z,101241.58
2023-02-23T02:02:54.823Z,101247.30
2023-02-23T02:05:23.291Z,101240.84
2023-02-23T02:07:59.080Z,101247.59
2023-02-23T02:10:39.753Z,101249.55
2023-02-23T02:13:09.040Z,101250.16
2023-02-23T02:15:41.151Z,101254.15
2023-02-23T02:18:38.358Z,101256.36
2023-02-23T02:21:18.173Z,101258.39
2023-02-23T02:24:16.068Z,101263.80
2023-02-23T02:26:50.208Z,101268.63
2023-02-23T02:29:29.034Z,101270.33
2023-02-23T02:32:16.609Z,101272.02
2023-02-23T02:35:03.958Z,101274.53
2023-02-23T02:37:42.116Z,101274.92
2023-02-23T02:40:22.724Z,101277.91
2023-02-23T02:43:08.984Z,101279.21
2023-02-23T02:45:50.461Z,101278.63
2023-02-23T02:48:21.915Z,101282.10
2023-02-23T02:51:18.224Z,101281.91
2023-02-23T02:54:15.302Z,101286.46
2023-02-23T02:56:44.414Z,101290.66
2023-02-23T02:59:33.418Z,101295.21
2023-02-23T03:02:21.696Z,101294.06
2023-02-23T03:05:08.717Z,101301.09
2023-02-23T03:07:59.730Z,101300.44
2023-02-23T03:11:21.510Z,101300.31
2023-02-23T03:14:15.698Z,101306.29
2023-02-23T03:17:15.503Z,101302.94
2023-02-23T03:20:16.319Z,101309.23
2023-02-23T03:23:14.438Z,101311.34
2023-02-23T03:26:25.758Z,101316.84
2023-02-23T03:29:23.118Z,101315.71
2023-02-23T03:32:38.603Z,101317.70
2023-02-23T03:35:33.545Z,101318.64
2023-02-23T03:38:29.640Z,101322.59
2023-02-23T03:41:17.188Z,101326.52
2023-02-23T03:44:09.523Z,101323.05
2023-02-23T03:46:56.967Z,101324.08
2023-02-23T03:49:45.512Z,101328.77
2023-02-23T03:52:39.297Z,101331.97
2023-02-23T03:55:41.063Z,101327.77
2023-02-23T03:58:29.609Z,101334.24
2023-02-23T04:01:18.065Z,101341.21
2023-02-23T04:04:05.318Z,101343.18
2023-02-23T04:06:54.887Z,101349.24
2023-02-23T04:09:41.758Z,101352.30
2023-02-23T04:12:49.718Z,101351.83
2023-02-23T04:15:33.322Z,101355.02
2023-02-23T04:18:06.639Z,101353.96
2023-02-23T04:20:35.532Z,101352.80
2023-02-23T04:23:04.575Z,101355.87
2023-02-23T04:25:33.257Z,101353.65
2023-02-23T04:28:01.439Z,101356.66
2023-02-23T04:30:30.667Z,101361.52
2023-02-23T04:32:59.550Z,101364.48
2023-02-23T04:35:30.105Z,101368.66
2023-02-23T04:38:01.716Z,101371.98
2023-02-23T04:40:30.117Z,101373.86
2023-02-23T04:42:58.435Z,101378.69
2023-02-23T04:45:26.820Z,101382.17
2023-02-23T04:47:55.099Z,101382.14
2023-02-23T04:50:25.517Z,101386.90
2023-02-23T04:52:53.987Z,101386.19
2023-02-23T04:55:24.668Z,101388.32
2023-02-23T04:57:57.963Z,101390.98
2023-02-23T05:00:27.106Z,101392.36
2023-02-23T05:02:56.369Z,101392.42
2023-02-23T05:05:25.682Z,101400.58
2023-02-23T05:07:55.205Z,101401.27
2023-02-23T05:10:25.030Z,101402.13
2023-02-23T05:12:55.532Z,101406.61
2023-02-23T05:15:23.753Z,101409.48
2023-02-23T05:17:51.937Z,101415.17
2023-02-23T05:20:24.777Z,101418.70
2023-02-23T05:22:53.184Z,101423.61
2023-02-23T05:25:21.474Z,101426.88
2023-02-23T05:27:53.138Z,101432.17
2023-02-23T05:30:21.729Z,101436.65
2023-02-23T05:32:51.642Z,101437.89
2023-02-23T05:35:20.050Z,101438.85
2023-02-23T05:37:48.300Z,101439.02
2023-02-23T05:40:16.697Z,101447.42
2023-02-23T05:42:46.763Z,101448.46
2023-02-23T05:45:15.247Z,101453.56
2023-02-23T05:47:43.505Z,101463.76
2023-02-23T05:50:12.054Z,101463.40
2023-02-23T05:52:41.814Z,101469.98
2023-02-23T05:55:11.905Z,101472.96
2023-02-23T05:57:41.281Z,101479.14
2023-02-23T06:00:11.092Z,101478.75
2023-02-23T06:02:42.002Z,101483.45
2023-02-23T06:05:11.597Z,101486.29
2023-02-23T06:07:39.791Z,101489.80
2023-02-23T06:10:08.375Z,101492.11
2023-02-23T06:12:36.983Z,101489.73
2023-02-23T06:15:06.267Z,101492.95
2023-02-23T06:17:36.017Z,101492.41
2023-02-23T06:20:05.588Z,101495.56
2023-02-23T06:22:37.214Z,101497.33
2023-02-23T06:25:22.351Z,101498.84
2023-02-23T06:28:16.229Z,101505.10
2023-02-23T06:31:18.513Z,101510.05
2023-02-23T06:34:00.685Z,101510.48
2023-02-23T06:36:29.768Z,101514.08
2023-02-23T06:38:59.234Z,101511.73
2023-02-23T06:41:27.929Z,101513.80
2023-02-23T06:43:56.154Z,101514.98
2023-02-23T06:46:24.866Z,101516.63
2023-02-23T06:49:03.003Z,101512.09
2023-02-23T06:51:31.855Z,101517.98
2023-02-23T06:54:00.105Z,101515.92
2023-02-23T06:56:28.360Z,101512.27
2023-02-23T06:58:56.665Z,101513.22
2023-02-23T07:01:25.463Z,101511.55
2023-02-23T07:03:53.778Z,101513.02
2023-02-23T07:06:22.247Z,101514.34
2023-02-23T07:08:50.880Z,101522.31
2023-02-23T07:11:20.522Z,101525.54
2023-02-23T07:13:49.432Z,101526.21
2023-02-23T07:16:17.811Z,101524.89
2023-02-23T07:18:46.125Z,101527.59
2023-02-23T07:21:14.429Z,101524.56
2023-02-23T07:23:43.113Z,101527.73
2023-02-23T07:26:15.615Z,101522.45
2023-02-23T07:29:04.511Z,101522.73
2023-02-23T07:31:46.730Z,101528.01
2023-02-23T07:34:15.238Z,101525.84
2023-02-23T07:36:43.434Z,101524.73
2023-02-23T07:39:11.996Z,101530.28
2023-02-23T07:41:40.583Z,101529.27
2023-02-23T07:44:17.154Z,101532.27
2023-02-23T07:46:46.653Z,101530.35
2023-02-23T07:49:14.882Z,101531.92
2023-02-23T07:51:43.347Z,101536.39
2023-02-23T07:54:12.445Z,101528.70
2023-02-23T07:56:40.726Z,101531.80
2023-02-23T07:59:08.981Z,101532.14
2023-02-23T08:01:39.312Z,101533.36
2023-02-23T08:04:07.725Z,101530.33
2023-02-23T08:06:37.435Z,101530.33
2023-02-23T08:09:06.412Z,101532.20
2023-02-23T08:11:35.380Z,101528.92
2023-02-23T08:14:04.111Z,101529.54
2023-02-23T08:16:33.112Z,101528.15
2023-02-23T08:19:01.553Z,101521.38
2023-02-23T08:21:30.123Z,101522.02
2023-02-23T08:24:00.277Z,101524.95
2023-02-23T08:26:31.432Z,101523.23
2023-02-23T08:29:00.973Z,101519.91
2023-02-23T08:31:29.880Z,101521.80
2023-02-23T08:33:58.733Z,101521.69
2023-02-23T08:36:27.433Z,101524.56
2023-02-23T08:38:56.111Z,101524.48
2023-02-23T08:41:25.838Z,101526.21
2023-02-23T08:43:54.499Z,101523.86
2023-02-23T08:46:22.836Z,101523.98
2023-02-23T08:48:51.554Z,101525.83
2023-02-23T08:51:20.080Z,101522.33
2023-02-23T08:53:48.596Z,101521.61
2023-02-23T08:56:16.864Z,101522.84
2023-02-23T08:58:45.238Z,101525.30
2023-02-23T09:01:18.593Z,101523.89
2023-02-23T09:03:47.850Z,101515.61
2023-02-23T09:06:18.890Z,101515.13
2023-02-23T09:08:47.470Z,101520.08
2023-02-23T09:11:15.705Z,101519.45
2023-02-23T09:13:45.026Z,101525.89
2023-02-23T09:16:13.351Z,101523.46
2023-02-23T09:18:42.149Z,101526.15
2023-02-23T09:21:19.656Z,101530.73
2023-02-23T09:23:52.721Z,101532.90
2023-02-23T09:26:32.976Z,101531.79
2023-02-23T09:29:01.802Z,101530.59
2023-02-23T09:31:33.152Z,101530.40
2023-02-23T09:34:02.078Z,101530.22
2023-02-23T09:36:34.796Z,101525.83
2023-02-23T09:39:03.740Z,101528.81
2023-02-23T09:41:43.913Z,101531.14
2023-02-23T09:44:34.368Z,101535.15
2023-02-23T09:47:15.196Z,101534.53
2023-02-23T09:49:45.404Z,101532.21
2023-02-23T09:52:19.852Z,101529.52
2023-02-23T09:54:48.649Z,101528.12
2023-02-23T09:57:24.431Z,101528.17
2023-02-23T09:59:53.458Z,101529.73
2023-02-23T10:02:23.746Z,101529.95
2023-02-23T10:05:02.317Z,101525.64
2023-02-23T10:07:50.244Z,101519.79
2023-02-23T10:10:32.521Z,101519.67
2023-02-23T10:13:16.174Z,101516.92
2023-02-23T10:15:45.845Z,101517.41
2023-02-23T10:18:20.933Z,101516.46
2023-02-23T10:21:09.603Z,101515.30
2023-02-23T10:23:49.399Z,101516.52
2023-02-23T10:26:20.047Z,101515.55
2023-02-23T10:28:49.083Z,101508.76
2023-02-23T10:31:45.407Z,101506.67
2023-02-23T10:34:15.421Z,101510.08
2023-02-23T10:36:57.844Z,101511.06
2023-02-23T10:39:26.593Z,101508.61
2023-02-23T10:41:56.162Z,101502.46
2023-02-23T10:44:26.414Z,101500.06
2023-02-23T10:47:00.534Z,101498.14
2023-02-23T10:49:38.118Z,101495.17
2023-02-23T10:52:13.813Z,101493.86
2023-02-23T10:54:50.004Z,101491.59
2023-02-23T10:57:34.578Z,101496.08
2023-02-23T11:00:33.108Z,101501.35
2023-02-23T11:03:01.853Z,101496.39
2023-02-23T11:05:37.286Z,101494.23
2023-02-23T11:08:21.749Z,101489.90
2023-02-23T11:10:56.784Z,101493.14
2023-02-23T11:13:27.457Z,101490.21
2023-02-23T11:16:00.987Z,101491.73
2023-02-23T11:18:34.244Z,101488.52
2023-02-23T11:21:12.506Z,101488.97
2023-02-23T11:23:40.851Z,101491.02
2023-02-23T11:26:34.524Z,101486.81
2023-02-23T11:29:14.188Z,101486.69
2023-02-23T11:31:48.931Z,101490.11
2023-02-23T11:34:33.014Z,101485.15
2023-02-23T11:37:29.899Z,101488.55
2023-02-23T11:41:00.224Z,101487.20
2023-02-23T11:43:28.675Z,101490.34
2023-02-23T11:45:58.683Z,101483.60
2023-02-23T11:48:30.519Z,101483.90
2023-02-23T11:50:59.138Z,101486.46
2023-02-23T11:53:32.684Z,101483.84
2023-02-23T11:56:08.316Z,101483.70
2023-02-23T11:58:49.651Z,101484.66
2023-02-23T12:01:21.230Z,101481.93
2023-02-23T12:03:50.584Z,101482.30
2023-02-23T12:06:33.357Z,101480.27
2023-02-23T12:09:04.921Z,101482.52
2023-02-23T12:11:38.192Z,101482.66
2023-02-23T12:14:18.208Z,101482.30
2023-02-23T12:16:48.722Z,101473.58
2023-02-23T12:19:29.033Z,101475.87
2023-02-23T12:22:18.826Z,101477.00
2023-02-23T12:25:19.592Z,101471.56
2023-02-23T12:28:19.733Z,101471.13
2023-02-23T12:31:12.020Z,101471.71
2023-02-23T12:33:48.056Z,101469.66
2023-02-23T12:36:16.667Z,101468.39
2023-02-23T12:38:56.482Z,101464.13
2023-02-23T12:41:49.544Z,101457.20
2023-02-23T12:44:39.873Z,101458.21
2023-02-23T12:47:16.552Z,101458.44
2023-02-23T12:49:46.981Z,101455.44
2023-02-23T12:52:25.963Z,101452.77
2023-02-23T12:54:54.353Z,101445.36
2023-02-23T12:57:38.910Z,101438.77
2023-02-23T13:00:33.008Z,101435.14
2023-02-23T13:03:39.110Z,101431.39
2023-02-23T13:06:31.228Z,101427.61
2023-02-23T13:08:59.450Z,101424.20
2023-02-23T13:11:31.808Z,101428.79
2023-02-23T13:14:15.025Z,101427.59
2023-02-23T13:16:56.647Z,101423.19
2023-02-23T13:19:27.376Z,101420.98
2023-02-23T13:21:59.832Z,101420.97
2023-02-23T13:24:33.640Z,101418.44
2023-02-23T13:27:07.904Z,101413.77
2023-02-23T13:29:40.164Z,101414.25
2023-02-23T13:32:13.180Z,101414.61
2023-02-23T13:34:44.518Z,101406.95
2023-02-23T13:37:13.784Z,101402.48
2023-02-23T13:40:13.765Z,101403.77
2023-02-23T13:43:01.310Z,101403.98
2023-02-23T13:45:44.248Z,101396.41
2023-02-23T13:48:18.860Z,101396.32
2023-02-23T13:51:06.870Z,101388.30
2023-02-23T13:53:47.277Z,101384.27
2023-02-23T13:56:16.855Z,101383.33
2023-02-23T13:58:51.513Z,101386.60
2023-02-23T14:01:26.929Z,101388.61
2023-02-23T14:03:57.533Z,101384.16
2023-02-23T14:06:27.450Z,101385.48
2023-02-23T14:09:17.424Z,101381.51
2023-02-23T14:11:51.347Z,101380.29
2023-02-23T14:14:34.725Z,101377.00
2023-02-23T14:17:35.619Z,101377.04
2023-02-23T14:20:27.852Z,101374.36
2023-02-23T14:23:23.189Z,101375.73
2023-02-23T14:26:12.199Z,101374.75
2023-02-23T14:29:11.287Z,101374.66
2023-02-23T14:31:40.146Z,101378.18
2023-02-23T14:34:10.042Z,101386.23
2023-02-23T14:36:44.072Z,101383.79
2023-02-23T14:39:26.372Z,101385.32
2023-02-23T14:41:59.140Z,101387.68
2023-02-23T14:44:31.188Z,101388.11
2023-02-23T14:47:13.456Z,101385.35
2023-02-23T14:49:52.138Z,101378.06
2023-02-23T14:52:31.571Z,101378.14
2023-02-23T14:55:29.184Z,101378.03
2023-02-23T14:57:58.435Z,101375.23
2023-02-23T15:00:32.815Z,101377.41
2023-02-23T15:03:09.346Z,101377.70
2023-02-23T15:05:57.615Z,101375.92
2023-02-23T15:08:31.201Z,101379.19
2023-02-23T15:11:12.240Z,101377.09
2023-02-23T15:13:51.802Z,101373.71
2023-02-23T15:16:37.810Z,101372.18
2023-02-23T15:19:25.427Z,101374.91
2023-02-23T15:22:41.674Z,101374.24
2023-02-23T15:25:16.556Z,101381.95
2023-02-23T15:27:46.042Z,101378.82
2023-02-23T15:30:25.300Z,101378.21
2023-02-23T15:33:06.371Z,101382.65
2023-02-23T15:35:54.428Z,101380.13
2023-02-23T15:38:42.361Z,101387.40
2023-02-23T15:41:26.137Z,101390.19
2023-02-23T15:43:56.546Z,101392.90
2023-02-23T15:46:26.921Z,101395.13
2023-02-23T15:48:56.380Z,101394.79
2023-02-23T15:51:49.081Z,101388.85
2023-02-23T15:54:35.526Z,101388.98
2023-02-23T15:57:06.843Z,101384.07
2023-02-23T15:59:36.963Z,101378.86
2023-02-23T16:02:14.895Z,101371.15
2023-02-23T16:04:49.141Z,101372.46
2023-02-23T16:07:19.593Z,101375.54
2023-02-23T16:09:52.868Z,101378.03
2023-02-23T16:12:36.629Z,101383.00
2023-02-23T16:15:36.634Z,101382.15
2023-02-23T16:18:16.139Z,101381.59
2023-02-23T16:20:56.941Z,101382.52
2023-02-23T16:23:37.692Z,101388.40
2023-02-23T16:26:27.418Z,101395.86
2023-02-23T16:29:00.487Z,101396.84
2023-02-23T16:31:49.088Z,101393.46
2023-02-23T16:34:24.345Z,101388.38
2023-02-23T16:37:00.202Z,101387.72
2023-02-23T16:39:29.815Z,101387.92
2023-02-23T16:41:58.833Z,101387.63
2023-02-23T16:44:34.228Z,101377.76
2023-02-23T16:47:03.906Z,101368.92
2023-02-23T16:49:34.536Z,101368.08
2023-02-23T16:52:05.107Z,101366.77
2023-02-23T16:54:33.670Z,101370.77
2023-02-23T16:57:04.445Z,101363.61
2023-02-23T16:59:35.845Z,101364.48
2023-02-23T17:02:12.461Z,101366.39
2023-02-23T17:04:49.573Z,101360.10
2023-02-23T17:07:27.337Z,101358.16
2023-02-23T17:10:04.237Z,101361.70
2023-02-23T17:12:56.550Z,101352.05
2023-02-23T17:15:56.759Z,101357.63
2023-02-23T17:18:46.308Z,101360.38
2023-02-23T17:21:26.048Z,101350.08
2023-02-23T17:24:10.495Z,101351.36
2023-02-23T17:27:12.577Z,101352.23
2023-02-23T17:30:00.722Z,101342.05
2023-02-23T17:32:36.359Z,101338.45
2023-02-23T17:35:25.411Z,101344.12
2023-02-23T17:38:15.514Z,101337.59
2023-02-23T17:40:53.172Z,101335.48
2023-02-23T17:43:35.668Z,101327.60
2023-02-23T17:46:33.566Z,101328.23
2023-02-23T17:49:16.164Z,101323.37
2023-02-23T17:51:44.520Z,101321.83
2023-02-23T17:54:13.163Z,101331.70
2023-02-23T17:56:41.398Z,101331.14
2023-02-23T17:59:10.858Z,101331.10
2023-02-23T18:01:40.500Z,101334.25
2023-02-23T18:04:09.364Z,101333.66
2023-02-23T18:06:38.907Z,101327.10
2023-02-23T18:09:08.077Z,101324.02
2023-02-23T18:11:36.440Z,101328.62
2023-02-23T18:14:05.104Z,101334.09
2023-02-23T18:16:34.878Z,101334.40
2023-02-23T18:19:06.564Z,101330.86
2023-02-23T18:21:39.676Z,101323.43
2023-02-23T18:24:08.795Z,101320.28
2023-02-23T18:26:38.677Z,101318.45
2023-02-23T18:29:07.809Z,101314.75
2023-02-23T18:31:39.246Z,101316.80
2023-02-23T18:34:08.832Z,101311.92
2023-02-23T18:36:37.277Z,101307.61
2023-02-23T18:39:07.092Z,101309.66
2023-02-23T18:41:37.405Z,101307.36
2023-02-23T18:44:12.760Z,101305.73
2023-02-23T18:46:43.232Z,101298.58
2023-02-23T18:49:17.572Z,101298.89
2023-02-23T18:51:49.204Z,101297.73
2023-02-23T18:54:21.167Z,101297.86
2023-02-23T18:56:49.462Z,101293.85
2023-02-23T18:59:17.867Z,101291.08
2023-02-23T19:01:49.581Z,101290.49
2023-02-23T19:04:17.984Z,101286.73
2023-02-23T19:06:47.432Z,101281.45
2023-02-23T19:09:20.179Z,101281.21
2023-02-23T19:11:51.714Z,101277.44
2023-02-23T19:14:32.967Z,101272.20
2023-02-23T19:17:09.896Z,101267.82
2023-02-23T19:19:38.321Z,101270.27
2023-02-23T19:22:09.930Z,101266.96
2023-02-23T19:24:42.059Z,101263.36
2023-02-23T19:27:11.097Z,101261.84
2023-02-23T19:29:40.617Z,101256.27
2023-02-23T19:32:09.952Z,101255.55
2023-02-23T19:34:40.696Z,101256.35
2023-02-23T19:37:16.457Z,101260.09
2023-02-23T19:39:46.693Z,101259.91
2023-02-23T19:42:18.600Z,101263.53
2023-02-23T19:44:48.074Z,101252.27
2023-02-23T19:47:16.438Z,101244.45
2023-02-23T19:49:45.264Z,101232.59
2023-02-23T19:52:13.549Z,101226.64
2023-02-23T19:54:41.887Z,101227.63
2023-02-23T19:57:10.711Z,101218.24
2023-02-23T19:59:39.096Z,101220.16
2023-02-23T20:02:11.278Z,101220.02
2023-02-23T20:04:39.717Z,101210.84
2023-02-23T20:07:10.333Z,101207.35
2023-02-23T20:09:38.732Z,101209.47
2023-02-23T20:12:07.214Z,101209.02
2023-02-23T20:14:39.064Z,101209.60
2023-02-23T20:17:13.923Z,101204.04
2023-02-23T20:19:44.506Z,101196.14
2023-02-23T20:22:12.725Z,101188.50
2023-02-23T20:24:41.439Z,101188.51
2023-02-23T20:27:10.034Z,101187.52
2023-02-23T20:29:45.181Z,101185.20
2023-02-23T20:32:18.743Z,101184.08
2023-02-23T20:34:50.653Z,101183.10
2023-02-23T20:37:19.237Z,101181.88
2023-02-23T21:00:20.399Z,101157.19
2023-02-23T21:02:48.777Z,101149.17
2023-02-23T21:05:17.171Z,101151.71
2023-02-23T21:07:45.490Z,101150.54
2023-02-23T21:10:14.135Z,101146.88
2023-02-23T21:12:42.503Z,101142.69
2023-02-23T21:15:18.390Z,101141.41
2023-02-23T21:17:46.739Z,101139.46
2023-02-23T21:20:15.871Z,101143.95
2023-02-23T21:22:44.121Z,101139.31
2023-02-23T21:25:13.224Z,101129.04
2023-02-23T21:28:02.144Z,101129.95
2023-02-23T21:30:30.769Z,101126.04
2023-02-23T21:33:00.398Z,101121.58
2023-02-23T21:35:28.892Z,101121.54
2023-02-23T21:37:57.869Z,101120.76
2023-02-23T21:40:26.961Z,101113.83
2023-02-23T21:42:55.942Z,101114.42
2023-02-23T21:45:24.225Z,101112.45
2023-02-23T21:47:52.612Z,101110.99
2023-02-23T21:50:21.915Z,101107.55
2023-02-23T21:52:54.468Z,101104.94
2023-02-23T21:55:23.242Z,101101.95
2023-02-23T21:57:52.583Z,101096.52
2023-02-23T22:00:21.941Z,101095.94
2023-02-23T22:02:51.212Z,101093.64
2023-02-23T22:05:20.007Z,101095.58
2023-02-23T22:07:49.994Z,101096.29
2023-02-23T22:10:20.353Z,101090.08
2023-02-23T22:12:50.349Z,101084.09
2023-02-23T22:15:20.460Z,101082.77
2023-02-23T22:17:48.948Z,101083.13
2023-02-23T22:20:20.397Z,101082.45
2023-02-23T22:22:51.445Z,101081.78
2023-02-23T22:25:20.235Z,101080.99
2023-02-23T22:27:48.739Z,101075.45
2023-02-23T22:30:17.236Z,101077.88
2023-02-23T22:32:46.791Z,101068.21
2023-02-23T22:35:15.721Z,101061.42
2023-02-23T22:37:44.044Z,101054.27
2023-02-23T22:40:17.143Z,101049.60
2023-02-23T22:42:48.678Z,101048.22
2023-02-23T22:45:18.044Z,101043.17
2023-02-23T22:47:46.514Z,101040.31
2023-02-23T22:50:18.244Z,101039.58
2023-02-23T22:52:52.496Z,101039.58
2023-02-23T22:55:20.873Z,101037.63
2023-02-23T22:57:49.673Z,101028.90
2023-02-23T23:00:19.127Z,101024.19
2023-02-23T23:02:47.756Z,101022.73
2023-02-23T23:05:16.446Z,101023.02
2023-02-23T23:07:47.280Z,101021.42
2023-02-23T23:10:18.736Z,101016.05
2023-02-23T23:12:47.214Z,101010.33
2023-02-23T23:15:17.352Z,101011.17
2023-02-23T23:17:48.686Z,101009.73
2023-02-23T23:20:18.828Z,101007.77
2023-02-23T23:22:47.066Z,101003.79
2023-02-23T23:25:23.379Z,100998.19
2023-02-23T23:27:54.650Z,100996.35
2023-02-23T23:30:29.616Z,100989.08
2023-02-23T23:32:58.586Z,100984.89
2023-02-23T23:35:27.123Z,100978.11
2023-02-23T23:37:57.858Z,100972.57
2023-02-23T23:40:26.547Z,100970.60
2023-02-23T23:42:56.165Z,100966.64
2023-02-23T23:45:25.333Z,100967.61
2023-02-23T23:47:53.638Z,100963.16
2023-02-23T23:50:27.520Z,100952.61
2023-02-23T23:52:57.305Z,100947.50
2023-02-23T23:55:31.482Z,100944.39
2023-02-23T23:58:00.674Z,100940.70
